createdAt,value
2023-03-25T00:00:27.594Z,991.76
2023-03-25T00:01:27.714Z,991.75
2023-03-25T00:02:27.730Z,991.78
2023-03-25T00:03:27.567Z,991.78
2023-03-25T00:04:27.574Z,991.86
2023-03-25T00:05:27.526Z,991.87
2023-03-25T00:06:27.508Z,991.93
2023-03-25T00:07:27.514Z,991.91
2023-03-25T00:08:27.477Z,991.90
2023-03-25T00:09:27.459Z,991.92
2023-03-25T00:10:27.485Z,992.01
2023-03-25T00:11:27.436Z,991.96
2023-03-25T00:12:27.416Z,991.90
2023-03-25T00:13:27.502Z,991.89
2023-03-25T00:14:27.445Z,991.85
2023-03-25T00:15:27.398Z,991.86
2023-03-25T00:16:27.484Z,991.83
2023-03-25T00:17:27.374Z,991.85
2023-03-25T00:18:27.338Z,991.88
2023-03-25T00:19:27.463Z,991.82
2023-03-25T00:20:27.312Z,991.80
2023-03-25T00:21:27.318Z,991.82
2023-03-25T00:22:27.304Z,991.84
2023-03-25T00:23:27.281Z,991.87
2023-03-25T00:24:27.272Z,991.79
2023-03-25T00:25:27.254Z,991.83
2023-03-25T00:26:27.324Z,991.83
2023-03-25T00:27:27.217Z,991.77
2023-03-25T00:28:27.228Z,991.79
2023-03-25T00:29:27.199Z,991.77
2023-03-25T00:30:27.193Z,991.73
2023-03-25T00:31:27.298Z,991.70
2023-03-25T00:32:27.161Z,991.73
2023-03-25T00:33:27.173Z,991.74
2023-03-25T00:34:27.116Z,991.76
2023-03-25T00:35:27.163Z,991.74
2023-03-25T00:36:27.149Z,991.77
2023-03-25T00:37:27.085Z,991.80
2023-03-25T00:38:27.069Z,991.84
2023-03-25T00:39:27.047Z,991.82
2023-03-25T00:40:27.041Z,991.81
2023-03-25T00:41:27.037Z,991.80
2023-03-25T00:42:27.006Z,991.82
2023-03-25T00:43:27.124Z,991.84
2023-03-25T00:44:26.977Z,991.84
2023-03-25T00:45:26.976Z,991.88
2023-03-25T00:46:27.097Z,991.88
2023-03-25T00:47:27.033Z,991.85
2023-03-25T00:48:26.966Z,991.87
2023-03-25T00:49:26.925Z,991.87
2023-03-25T00:50:26.926Z,991.84
2023-03-25T00:51:26.910Z,991.83
2023-03-25T00:52:26.893Z,991.85
2023-03-25T00:53:26.865Z,991.82
2023-03-25T00:54:26.844Z,991.85
2023-03-25T00:55:26.836Z,991.81
2023-03-25T00:56:26.892Z,991.85
2023-03-25T00:57:26.808Z,991.91
2023-03-25T00:58:26.791Z,991.89
2023-03-25T00:59:26.817Z,991.86
2023-03-25T01:00:26.803Z,991.79
2023-03-25T01:01:26.812Z,991.80
2023-03-25T01:02:26.849Z,991.78
2023-03-25T01:03:26.837Z,991.69
2023-03-25T01:04:26.704Z,991.71
2023-03-25T01:05:26.734Z,991.72
2023-03-25T01:06:26.714Z,991.77
2023-03-25T01:07:26.672Z,991.83
2023-03-25T01:08:26.643Z,991.83
2023-03-25T01:09:26.639Z,991.85
2023-03-25T01:10:26.620Z,991.86
2023-03-25T01:11:26.656Z,991.81
2023-03-25T01:12:26.591Z,991.79
2023-03-25T01:13:26.602Z,991.79
2023-03-25T01:14:26.562Z,991.77
2023-03-25T01:15:26.567Z,991.75
2023-03-25T01:16:26.577Z,991.66
2023-03-25T01:17:26.560Z,991.65
2023-03-25T01:18:26.510Z,991.65
2023-03-25T01:19:26.520Z,991.62
2023-03-25T01:20:26.491Z,991.63
2023-03-25T01:21:26.497Z,991.57
2023-03-25T01:22:26.453Z,991.51
2023-03-25T01:23:26.446Z,991.46
2023-03-25T01:24:26.422Z,991.45
2023-03-25T01:25:26.455Z,991.49
2023-03-25T01:26:26.420Z,991.51
2023-03-25T01:27:26.394Z,991.49
2023-03-25T01:28:26.384Z,991.48
2023-03-25T01:29:26.371Z,991.47
2023-03-25T01:30:26.346Z,991.47
2023-03-25T01:31:26.426Z,991.47
2023-03-25T01:32:26.347Z,991.45
2023-03-25T01:33:26.315Z,991.39
2023-03-25T01:34:26.317Z,991.39
2023-03-25T01:35:26.280Z,991.36
2023-03-25T01:36:26.283Z,991.37
2023-03-25T01:37:26.292Z,991.38
2023-03-25T01:38:26.247Z,991.36
2023-03-25T01:39:26.223Z,991.39
2023-03-25T01:40:26.217Z,991.38
2023-03-25T01:41:29.223Z,991.28
2023-03-25T01:42:27.182Z,991.36
2023-03-25T01:43:26.177Z,991.38
2023-03-25T01:44:26.168Z,991.36
2023-03-25T01:45:26.148Z,991.36
2023-03-25T01:46:26.260Z,991.41
2023-03-25T01:47:26.172Z,991.40
2023-03-25T01:48:26.132Z,991.42
2023-03-25T01:49:26.118Z,991.43
2023-03-25T01:50:26.122Z,991.46
2023-03-25T01:51:26.152Z,991.43
2023-03-25T01:52:26.072Z,991.47
2023-03-25T01:53:26.038Z,991.49
2023-03-25T01:54:26.036Z,991.48
2023-03-25T01:55:26.020Z,991.51
2023-03-25T01:56:26.018Z,991.43
2023-03-25T01:57:26.087Z,991.43
2023-03-25T01:58:26.030Z,991.46
2023-03-25T01:59:25.989Z,991.42
2023-03-25T02:00:25.956Z,991.37
2023-03-25T02:01:25.941Z,991.37
2023-03-25T02:02:25.956Z,991.33
2023-03-25T02:03:25.969Z,991.37
2023-03-25T02:04:25.898Z,991.30
2023-03-25T02:05:25.872Z,991.33
2023-03-25T02:06:25.882Z,991.29
2023-03-25T02:07:25.877Z,991.25
2023-03-25T02:08:25.854Z,991.26
2023-03-25T02:09:25.833Z,991.18
2023-03-25T02:10:25.820Z,991.21
2023-03-25T02:11:25.801Z,991.21
2023-03-25T02:12:25.806Z,991.24
2023-03-25T02:13:25.776Z,991.21
2023-03-25T02:14:25.766Z,991.19
2023-03-25T02:15:25.745Z,991.20
2023-03-25T02:16:25.788Z,991.20
2023-03-25T02:17:25.762Z,991.21
2023-03-25T02:18:25.711Z,991.24
2023-03-25T02:19:25.692Z,991.29
2023-03-25T02:20:25.694Z,991.31
2023-03-25T02:21:25.664Z,991.26
2023-03-25T02:22:25.726Z,991.21
2023-03-25T02:23:25.636Z,991.26
2023-03-25T02:24:25.634Z,991.22
2023-03-25T02:25:25.619Z,991.23
2023-03-25T02:26:25.621Z,991.20
2023-03-25T02:27:25.602Z,991.18
2023-03-25T02:28:25.584Z,991.17
2023-03-25T02:29:25.559Z,991.09
2023-03-25T02:30:25.554Z,991.12
2023-03-25T02:31:25.677Z,991.13
2023-03-25T02:32:25.543Z,991.12
2023-03-25T02:33:25.479Z,991.19
2023-03-25T02:34:25.485Z,991.13
2023-03-25T02:35:25.502Z,991.13
2023-03-25T02:36:25.467Z,991.19
2023-03-25T02:37:25.476Z,991.21
2023-03-25T02:38:25.441Z,991.17
2023-03-25T02:39:25.438Z,991.19
2023-03-25T02:40:25.412Z,991.15
2023-03-25T02:41:25.398Z,991.08
2023-03-25T02:42:25.379Z,991.12
2023-03-25T02:43:25.394Z,991.09
2023-03-25T02:44:25.368Z,991.05
2023-03-25T02:45:25.345Z,991.04
2023-03-25T02:46:25.374Z,991.06
2023-03-25T02:47:25.373Z,991.02
2023-03-25T02:48:25.390Z,991.02
2023-03-25T02:49:25.288Z,991.02
2023-03-25T02:50:25.273Z,991.07
2023-03-25T02:51:25.255Z,991.06
2023-03-25T02:52:25.258Z,991.06
2023-03-25T02:53:25.243Z,991.07
2023-03-25T02:54:25.200Z,991.05
2023-03-25T02:55:25.195Z,991.04
2023-03-25T02:56:25.189Z,991.00
2023-03-25T02:57:25.160Z,990.95
2023-03-25T02:58:25.193Z,990.90
2023-03-25T02:59:25.140Z,990.93
2023-03-25T03:00:25.135Z,990.93
2023-03-25T03:01:25.150Z,990.91
2023-03-25T03:02:25.188Z,990.91
2023-03-25T03:03:25.131Z,990.91
2023-03-25T03:04:25.082Z,990.90
2023-03-25T03:05:25.057Z,990.92
2023-03-25T03:06:25.047Z,990.89
2023-03-25T03:07:25.031Z,990.85
2023-03-25T03:08:25.054Z,990.84
2023-03-25T03:09:25.002Z,990.82
2023-03-25T03:10:25.001Z,990.85
2023-03-25T03:11:24.974Z,990.84
2023-03-25T03:12:24.969Z,990.81
2023-03-25T03:13:24.951Z,990.84
2023-03-25T03:14:24.958Z,990.87
2023-03-25T03:15:24.939Z,990.85
2023-03-25T03:16:25.028Z,990.82
2023-03-25T03:17:24.957Z,990.80
2023-03-25T03:18:24.955Z,990.76
2023-03-25T03:19:24.892Z,990.74
2023-03-25T03:20:24.863Z,990.71
2023-03-25T03:21:24.844Z,990.70
2023-03-25T03:22:24.843Z,990.71
2023-03-25T03:23:24.814Z,990.66
2023-03-25T03:24:24.826Z,990.64
2023-03-25T03:25:24.782Z,990.69
2023-03-25T03:26:24.781Z,990.72
2023-03-25T03:27:24.772Z,990.68
2023-03-25T03:28:24.743Z,990.69
2023-03-25T03:29:24.753Z,990.68
2023-03-25T03:30:24.738Z,990.72
2023-03-25T03:32:00.190Z,990.76
2023-03-25T03:32:25.758Z,990.74
2023-03-25T03:33:24.675Z,990.81
2023-03-25T03:34:24.685Z,990.78
2023-03-25T03:35:24.743Z,990.79
2023-03-25T03:36:24.649Z,990.82
2023-03-25T03:37:24.636Z,990.84
2023-03-25T03:38:24.622Z,990.80
2023-03-25T03:39:24.626Z,990.79
2023-03-25T03:40:24.598Z,990.82
2023-03-25T03:41:24.574Z,990.85
2023-03-25T03:42:24.564Z,990.83
2023-03-25T03:43:24.543Z,990.87
2023-03-25T03:44:24.548Z,990.85
2023-03-25T03:45:24.523Z,990.82
2023-03-25T03:46:24.577Z,990.91
2023-03-25T03:47:24.485Z,990.95
2023-03-25T03:48:24.479Z,990.99
2023-03-25T03:49:24.473Z,991.01
2023-03-25T03:50:24.448Z,991.04
2023-03-25T03:51:24.420Z,991.10
2023-03-25T03:52:24.431Z,991.14
2023-03-25T03:53:24.407Z,991.15
2023-03-25T03:54:24.414Z,991.16
2023-03-25T03:55:24.376Z,991.11
2023-03-25T03:56:24.379Z,991.07
2023-03-25T03:57:24.354Z,991.10
2023-03-25T03:58:24.339Z,991.08
2023-03-25T03:59:24.333Z,991.08
2023-03-25T04:00:24.300Z,991.10
2023-03-25T04:01:24.291Z,991.10
2023-03-25T04:02:24.433Z,991.14
2023-03-25T04:03:24.669Z,991.21
2023-03-25T04:04:24.263Z,991.13
2023-03-25T04:05:24.242Z,991.16
2023-03-25T04:06:24.229Z,991.14
2023-03-25T04:07:24.213Z,991.08
2023-03-25T04:08:24.205Z,991.13
2023-03-25T04:09:24.191Z,991.14
2023-03-25T04:10:24.170Z,991.17
2023-03-25T04:11:24.152Z,991.25
2023-03-25T04:12:24.137Z,991.21
2023-03-25T04:13:24.129Z,991.18
2023-03-25T04:14:24.133Z,991.22
2023-03-25T04:15:24.111Z,991.20
2023-03-25T04:16:24.127Z,991.20
2023-03-25T04:17:24.153Z,991.16
2023-03-25T04:18:24.060Z,991.20
2023-03-25T04:19:24.062Z,991.21
2023-03-25T04:20:24.200Z,991.21
2023-03-25T04:21:24.014Z,991.19
2023-03-25T04:22:24.006Z,991.21
2023-03-25T04:23:23.987Z,991.24
2023-03-25T04:24:23.995Z,991.21
2023-03-25T04:25:23.954Z,991.22
2023-03-25T04:26:23.962Z,991.21
2023-03-25T04:27:23.930Z,991.21
2023-03-25T04:28:23.944Z,991.23
2023-03-25T04:29:23.919Z,991.25
2023-03-25T04:30:23.902Z,991.20
2023-03-25T04:31:23.889Z,991.28
2023-03-25T04:32:23.901Z,991.29
2023-03-25T04:33:23.852Z,991.32
2023-03-25T04:34:23.853Z,991.37
2023-03-25T04:35:23.834Z,991.36
2023-03-25T04:36:23.816Z,991.36
2023-03-25T04:37:23.799Z,991.28
2023-03-25T04:38:23.832Z,991.36
2023-03-25T04:39:23.791Z,991.39
2023-03-25T04:40:23.757Z,991.35
2023-03-25T04:41:23.843Z,991.36
2023-03-25T04:42:23.719Z,991.39
2023-03-25T04:43:23.720Z,991.36
2023-03-25T04:44:23.710Z,991.36
2023-03-25T04:45:23.699Z,991.38
2023-03-25T04:46:23.760Z,991.33
2023-03-25T04:47:23.694Z,991.39
2023-03-25T04:48:23.663Z,991.36
2023-03-25T04:49:23.630Z,991.40
2023-03-25T04:50:23.632Z,991.35
2023-03-25T04:51:23.627Z,991.37
2023-03-25T04:52:23.591Z,991.38
2023-03-25T04:53:23.575Z,991.34
2023-03-25T04:54:23.602Z,991.43
2023-03-25T04:55:23.587Z,991.40
2023-03-25T04:56:23.600Z,991.48
2023-03-25T04:57:23.524Z,991.49
2023-03-25T04:58:23.523Z,991.45
2023-03-25T04:59:23.505Z,991.46
2023-03-25T05:00:23.505Z,991.55
2023-03-25T05:01:23.530Z,991.56
2023-03-25T05:02:23.498Z,991.50
2023-03-25T05:03:23.439Z,991.55
2023-03-25T05:04:23.473Z,991.60
2023-03-25T05:05:23.435Z,991.62
2023-03-25T05:06:24.731Z,991.66
2023-03-25T05:07:23.400Z,991.62
2023-03-25T05:08:23.373Z,991.62
2023-03-25T05:09:23.372Z,991.63
2023-03-25T05:10:23.368Z,991.63
2023-03-25T05:11:23.332Z,991.65
2023-03-25T05:12:23.321Z,991.66
2023-03-25T05:13:23.315Z,991.63
2023-03-25T05:14:23.295Z,991.58
2023-03-25T05:15:23.292Z,991.58
2023-03-25T05:16:23.291Z,991.57
2023-03-25T05:17:23.279Z,991.55
2023-03-25T05:18:23.246Z,991.54
2023-03-25T05:19:23.226Z,991.59
2023-03-25T05:20:23.223Z,991.52
2023-03-25T05:21:23.201Z,991.59
2023-03-25T05:22:23.177Z,991.59
2023-03-25T05:23:23.178Z,991.61
2023-03-25T05:24:23.151Z,991.62
2023-03-25T05:25:23.175Z,991.64
2023-03-25T05:26:23.133Z,991.61
2023-03-25T05:27:23.125Z,991.65
2023-03-25T05:28:23.103Z,991.64
2023-03-25T05:29:23.096Z,991.71
2023-03-25T05:30:23.118Z,991.67
2023-03-25T05:31:23.075Z,991.65
2023-03-25T05:32:23.055Z,991.69
2023-03-25T05:33:23.031Z,991.63
2023-03-25T05:34:23.021Z,991.66
2023-03-25T05:35:23.047Z,991.62
2023-03-25T05:36:23.001Z,991.68
2023-03-25T05:37:22.987Z,991.71
2023-03-25T05:38:22.990Z,991.72
2023-03-25T05:39:22.983Z,991.75
2023-03-25T05:40:22.983Z,991.78
2023-03-25T05:41:22.926Z,991.76
2023-03-25T05:42:23.069Z,991.72
2023-03-25T05:43:22.976Z,991.77
2023-03-25T05:44:22.886Z,991.75
2023-03-25T05:45:22.880Z,991.68
2023-03-25T05:46:22.889Z,991.71
2023-03-25T05:47:22.838Z,991.70
2023-03-25T05:48:22.836Z,991.81
2023-03-25T05:49:22.812Z,991.80
2023-03-25T05:50:22.810Z,991.80
2023-03-25T05:51:22.785Z,991.80
2023-03-25T05:52:22.761Z,991.84
2023-03-25T05:53:22.790Z,991.82
2023-03-25T05:54:22.719Z,991.84
2023-03-25T05:55:22.763Z,991.82
2023-03-25T05:56:22.712Z,991.85
2023-03-25T05:57:22.680Z,991.85
2023-03-25T05:58:22.694Z,991.85
2023-03-25T05:59:22.672Z,991.91
2023-03-25T06:00:23.786Z,991.95
2023-03-25T06:01:32.500Z,992.00
2023-03-25T06:02:23.686Z,991.95
2023-03-25T06:03:22.703Z,992.00
2023-03-25T06:04:22.634Z,991.99
2023-03-25T06:05:22.592Z,991.99
2023-03-25T06:06:22.591Z,991.98
2023-03-25T06:07:22.578Z,991.95
2023-03-25T06:08:22.549Z,991.93
2023-03-25T06:09:22.549Z,991.93
2023-03-25T06:10:22.519Z,991.92
2023-03-25T06:11:22.522Z,991.90
2023-03-25T06:12:22.506Z,991.93
2023-03-25T06:13:22.506Z,991.87
2023-03-25T06:14:22.477Z,991.87
2023-03-25T06:15:22.470Z,991.93
2023-03-25T06:16:22.562Z,991.83
2023-03-25T06:17:29.670Z,991.85
2023-03-25T06:18:22.425Z,991.86
2023-03-25T06:19:22.405Z,991.90
2023-03-25T06:20:22.380Z,991.86
2023-03-25T06:21:22.398Z,991.84
2023-03-25T06:22:22.476Z,991.82
2023-03-25T06:23:22.352Z,991.85
2023-03-25T06:24:22.329Z,991.87
2023-03-25T06:25:22.316Z,991.90
2023-03-25T06:26:22.317Z,991.88
2023-03-25T06:27:22.297Z,991.79
2023-03-25T06:28:22.282Z,991.84
2023-03-25T06:29:22.294Z,991.85
2023-03-25T06:30:22.266Z,991.88
2023-03-25T06:31:22.321Z,991.90
2023-03-25T06:32:22.353Z,991.87
2023-03-25T06:33:42.508Z,991.83
2023-03-25T06:34:23.756Z,991.78
2023-03-25T06:35:22.223Z,991.77
2023-03-25T06:36:22.233Z,991.76
2023-03-25T06:37:22.189Z,991.81
2023-03-25T06:38:22.139Z,991.81
2023-03-25T06:39:22.139Z,991.82
2023-03-25T06:40:22.120Z,991.80
2023-03-25T06:41:22.121Z,991.79
2023-03-25T06:42:22.119Z,991.79
2023-03-25T06:43:22.076Z,991.76
2023-03-25T06:44:24.361Z,991.81
2023-03-25T06:45:22.073Z,991.83
2023-03-25T06:46:22.155Z,991.90
2023-03-25T06:47:22.024Z,991.85
2023-03-25T06:48:22.005Z,991.89
2023-03-25T06:49:22.003Z,991.95
2023-03-25T06:50:21.977Z,991.93
2023-03-25T06:51:21.989Z,991.92
2023-03-25T06:52:22.062Z,991.95
2023-03-25T06:53:22.002Z,991.92
2023-03-25T06:54:21.925Z,991.94
2023-03-25T06:55:21.921Z,991.93
2023-03-25T06:56:21.917Z,991.87
2023-03-25T06:57:21.884Z,991.90
2023-03-25T06:58:21.876Z,991.88
2023-03-25T06:59:21.859Z,991.88
2023-03-25T07:00:21.845Z,991.91
2023-03-25T07:01:21.861Z,991.98
2023-03-25T07:02:21.823Z,991.92
2023-03-25T07:03:21.815Z,991.87
2023-03-25T07:04:21.781Z,991.88
2023-03-25T07:05:21.793Z,991.85
2023-03-25T07:06:21.769Z,991.87
2023-03-25T07:07:21.758Z,991.84
2023-03-25T07:08:21.754Z,991.80
2023-03-25T07:09:21.722Z,991.80
2023-03-25T07:10:21.703Z,991.85
2023-03-25T07:11:21.710Z,991.78
2023-03-25T07:12:21.677Z,991.80
2023-03-25T07:13:21.669Z,991.77
2023-03-25T07:14:21.662Z,991.71
2023-03-25T07:15:21.664Z,991.67
2023-03-25T07:16:21.843Z,991.80
2023-03-25T07:17:21.634Z,991.79
2023-03-25T07:18:21.583Z,991.70
2023-03-25T07:19:21.590Z,991.76
2023-03-25T07:20:21.566Z,991.70
2023-03-25T07:21:21.611Z,991.67
2023-03-25T07:22:21.539Z,991.67
2023-03-25T07:23:21.533Z,991.65
2023-03-25T07:24:21.523Z,991.67
2023-03-25T07:25:21.492Z,991.82
2023-03-25T07:26:21.489Z,991.76
2023-03-25T07:27:21.469Z,991.75
2023-03-25T07:28:21.455Z,991.75
2023-03-25T07:29:21.444Z,991.71
2023-03-25T07:30:21.413Z,991.74
2023-03-25T07:31:21.464Z,991.77
2023-03-25T07:32:21.473Z,991.74
2023-03-25T07:33:21.399Z,991.78
2023-03-25T07:34:21.369Z,991.76
2023-03-25T07:35:21.387Z,991.68
2023-03-25T07:36:21.342Z,991.74
2023-03-25T07:37:21.351Z,991.70
2023-03-25T07:38:21.304Z,991.77
2023-03-25T07:39:21.310Z,991.79
2023-03-25T07:40:21.290Z,991.73
2023-03-25T07:41:21.275Z,991.73
2023-03-25T07:42:21.298Z,991.72
2023-03-25T07:43:21.266Z,991.76
2023-03-25T07:44:21.251Z,991.71
2023-03-25T07:45:21.246Z,991.70
2023-03-25T07:46:21.265Z,991.67
2023-03-25T07:47:21.241Z,991.67
2023-03-25T07:48:21.196Z,991.67
2023-03-25T07:49:21.176Z,991.69
2023-03-25T07:50:22.528Z,991.68
2023-03-25T07:51:21.147Z,991.72
2023-03-25T07:52:21.144Z,991.66
2023-03-25T07:53:21.126Z,991.76
2023-03-25T07:54:21.110Z,991.68
2023-03-25T07:55:21.086Z,991.70
2023-03-25T07:56:21.075Z,991.58
2023-03-25T07:57:21.080Z,991.67
2023-03-25T07:58:21.070Z,991.63
2023-03-25T07:59:21.039Z,991.54
2023-03-25T08:00:21.020Z,991.60
2023-03-25T08:01:21.022Z,991.58
2023-03-25T08:02:21.056Z,991.61
2023-03-25T08:03:21.056Z,991.59
2023-03-25T08:04:20.977Z,991.74
2023-03-25T08:05:20.957Z,991.66
2023-03-25T08:06:20.954Z,991.71
2023-03-25T08:07:20.952Z,991.75
2023-03-25T08:08:20.913Z,991.70
2023-03-25T08:09:20.905Z,991.77
2023-03-25T08:10:20.891Z,991.69
2023-03-25T08:11:20.881Z,991.75
2023-03-25T08:12:20.886Z,991.66
2023-03-25T08:13:20.846Z,991.67
2023-03-25T08:14:20.838Z,991.71
2023-03-25T08:15:20.829Z,991.68
2023-03-25T08:16:20.834Z,991.70
2023-03-25T08:17:20.802Z,991.64
2023-03-25T08:18:20.782Z,991.62
2023-03-25T08:19:20.768Z,991.68
2023-03-25T08:20:20.741Z,991.62
2023-03-25T08:21:20.750Z,991.64
2023-03-25T08:22:20.738Z,991.61
2023-03-25T08:23:20.711Z,991.62
2023-03-25T08:24:20.706Z,991.58
2023-03-25T08:25:20.673Z,991.68
2023-03-25T08:26:20.669Z,991.70
2023-03-25T08:27:20.677Z,991.71
2023-03-25T08:28:20.638Z,991.73
2023-03-25T08:29:20.779Z,991.73
2023-03-25T08:30:20.631Z,991.71
2023-03-25T08:31:20.636Z,991.79
2023-03-25T08:32:20.649Z,991.79
2023-03-25T08:33:20.580Z,991.70
2023-03-25T08:34:20.599Z,991.65
2023-03-25T08:35:20.600Z,991.61
2023-03-25T08:36:20.578Z,991.62
2023-03-25T08:37:20.536Z,991.63
2023-03-25T08:38:20.528Z,991.62
2023-03-25T08:39:20.610Z,991.61
2023-03-25T08:40:20.498Z,991.55
2023-03-25T08:41:20.444Z,991.56
2023-03-25T08:42:20.463Z,991.55
2023-03-25T08:43:20.443Z,991.53
2023-03-25T08:44:20.411Z,991.44
2023-03-25T08:45:20.409Z,991.46
2023-03-25T08:46:20.429Z,991.40
2023-03-25T08:47:20.445Z,991.49
2023-03-25T08:48:20.377Z,991.41
2023-03-25T08:49:20.359Z,991.38
2023-03-25T08:50:20.343Z,991.42
2023-03-25T08:51:20.337Z,991.35
2023-03-25T08:52:20.355Z,991.30
2023-03-25T08:53:20.307Z,991.37
2023-03-25T08:54:20.316Z,991.41
2023-03-25T08:55:20.280Z,991.57
2023-03-25T08:56:20.286Z,991.52
2023-03-25T08:57:20.283Z,991.48
2023-03-25T08:58:20.227Z,991.68
2023-03-25T08:59:20.221Z,991.75
2023-03-25T09:00:20.211Z,991.85
2023-03-25T09:01:20.254Z,991.98
2023-03-25T09:02:20.180Z,992.04
2023-03-25T09:03:20.173Z,991.96
2023-03-25T09:04:20.152Z,991.98
2023-03-25T09:05:20.193Z,992.34
2023-03-25T09:06:20.136Z,992.40
2023-03-25T09:07:20.117Z,992.11
2023-03-25T09:08:20.118Z,992.19
2023-03-25T09:09:20.099Z,992.22
2023-03-25T09:10:20.076Z,992.31
2023-03-25T09:11:33.956Z,992.26
2023-03-25T09:12:21.048Z,992.22
2023-03-25T09:13:20.052Z,992.30
2023-03-25T09:14:20.027Z,992.33
2023-03-25T09:15:19.983Z,992.44
2023-03-25T09:16:20.025Z,992.45
2023-03-25T09:17:19.978Z,992.51
2023-03-25T09:18:19.975Z,992.44
2023-03-25T09:19:19.953Z,992.48
2023-03-25T09:20:19.946Z,992.49
2023-03-25T09:21:19.954Z,992.54
2023-03-25T09:22:19.913Z,992.51
2023-03-25T09:23:19.914Z,992.55
2023-03-25T09:24:19.890Z,992.51
2023-03-25T09:25:19.873Z,992.47
2023-03-25T09:26:19.868Z,992.49
2023-03-25T09:27:19.847Z,992.47
2023-03-25T09:28:19.894Z,992.39
2023-03-25T09:29:19.814Z,992.52
2023-03-25T09:30:19.812Z,992.47
2023-03-25T09:31:19.841Z,992.50
2023-03-25T09:32:19.760Z,992.50
2023-03-25T09:33:19.769Z,992.55
2023-03-25T09:34:19.743Z,992.55
2023-03-25T09:35:19.799Z,992.53
2023-03-25T09:36:19.719Z,992.56
2023-03-25T09:37:19.775Z,992.52
2023-03-25T09:38:19.737Z,992.59
2023-03-25T09:39:19.668Z,992.53
2023-03-25T09:40:19.667Z,992.54
2023-03-25T09:41:19.651Z,992.54
2023-03-25T09:42:19.636Z,992.53
2023-03-25T09:43:19.630Z,992.52
2023-03-25T09:44:19.623Z,992.47
2023-03-25T09:45:19.599Z,992.45
2023-03-25T09:46:19.616Z,992.48
2023-03-25T09:47:19.590Z,992.53
2023-03-25T09:48:19.572Z,992.42
2023-03-25T09:49:19.540Z,992.42
2023-03-25T09:50:19.542Z,992.38
2023-03-25T09:51:19.504Z,992.34
2023-03-25T09:52:19.523Z,992.35
2023-03-25T09:53:19.496Z,992.42
2023-03-25T09:54:19.473Z,992.32
2023-03-25T09:55:19.451Z,992.32
2023-03-25T09:56:19.445Z,992.28
2023-03-25T09:57:19.483Z,992.32
2023-03-25T09:58:19.433Z,992.37
2023-03-25T09:59:19.409Z,992.38
2023-03-25T10:00:19.386Z,992.37
2023-03-25T10:01:19.420Z,992.41
2023-03-25T10:02:19.421Z,992.40
2023-03-25T10:03:19.407Z,992.36
2023-03-25T10:04:19.345Z,992.39
2023-03-25T10:05:19.318Z,992.37
2023-03-25T10:06:19.307Z,992.33
2023-03-25T10:07:19.304Z,992.33
2023-03-25T10:08:19.297Z,992.40
2023-03-25T10:09:19.270Z,992.34
2023-03-25T10:10:19.257Z,992.41
2023-03-25T10:11:19.244Z,992.36
2023-03-25T10:12:19.227Z,992.38
2023-03-25T10:13:20.087Z,992.35
2023-03-25T10:14:19.208Z,992.35
2023-03-25T10:15:19.187Z,992.33
2023-03-25T10:16:19.226Z,992.32
2023-03-25T10:17:19.179Z,992.31
2023-03-25T10:18:19.153Z,992.36
2023-03-25T10:19:19.127Z,992.27
2023-03-25T10:20:19.118Z,992.44
2023-03-25T10:21:19.096Z,992.23
2023-03-25T10:22:19.078Z,992.28
2023-03-25T10:23:19.089Z,992.22
2023-03-25T10:24:19.060Z,992.27
2023-03-25T10:25:19.049Z,992.25
2023-03-25T10:26:19.041Z,992.29
2023-03-25T10:27:19.020Z,992.26
2023-03-25T10:28:19.047Z,992.27
2023-03-25T10:29:19.000Z,992.27
2023-03-25T10:30:18.981Z,992.26
2023-03-25T10:31:18.990Z,992.15
2023-03-25T10:32:18.949Z,992.12
2023-03-25T10:33:18.976Z,992.21
2023-03-25T10:34:18.944Z,992.21
2023-03-25T10:35:18.959Z,992.22
2023-03-25T10:36:18.899Z,992.23
2023-03-25T10:37:18.887Z,992.28
2023-03-25T10:38:18.913Z,992.22
2023-03-25T10:39:18.891Z,992.20
2023-03-25T10:40:21.002Z,992.21
2023-03-25T10:41:18.845Z,992.25
2023-03-25T10:42:18.821Z,992.23
2023-03-25T10:43:18.819Z,992.16
2023-03-25T10:44:18.802Z,992.16
2023-03-25T10:45:18.775Z,992.22
2023-03-25T10:46:18.817Z,992.20
2023-03-25T10:47:18.746Z,992.11
2023-03-25T10:48:18.740Z,992.20
2023-03-25T10:49:18.761Z,992.29
2023-03-25T10:50:18.726Z,992.20
2023-03-25T10:51:18.700Z,992.19
2023-03-25T10:52:18.694Z,992.25
2023-03-25T10:53:18.698Z,992.18
2023-03-25T10:54:18.681Z,992.18
2023-03-25T10:55:18.652Z,992.22
2023-03-25T10:56:18.640Z,992.24
2023-03-25T10:57:18.621Z,992.13
2023-03-25T10:58:18.614Z,992.15
2023-03-25T10:59:18.876Z,992.27
2023-03-25T11:00:18.576Z,992.17
2023-03-25T11:01:18.587Z,992.14
2023-03-25T11:02:18.649Z,992.15
2023-03-25T11:03:18.572Z,992.18
2023-03-25T11:04:18.560Z,992.14
2023-03-25T11:05:18.999Z,992.19
2023-03-25T11:06:18.505Z,992.12
2023-03-25T11:07:18.483Z,992.04
2023-03-25T11:08:24.150Z,992.11
2023-03-25T11:09:19.493Z,992.09
2023-03-25T11:10:18.461Z,991.98
2023-03-25T11:11:18.424Z,992.10
2023-03-25T11:12:18.416Z,992.16
2023-03-25T11:13:18.408Z,992.14
2023-03-25T11:14:18.408Z,992.12
2023-03-25T11:15:18.444Z,992.06
2023-03-25T11:16:18.403Z,992.02
2023-03-25T11:17:18.358Z,992.00
2023-03-25T11:18:18.333Z,991.98
2023-03-25T11:19:18.345Z,992.00
2023-03-25T11:20:18.304Z,992.02
2023-03-25T11:21:18.288Z,992.06
2023-03-25T11:22:18.284Z,992.05
2023-03-25T11:23:18.272Z,991.96
2023-03-25T11:24:18.282Z,991.89
2023-03-25T11:25:18.238Z,991.85
2023-03-25T11:26:18.227Z,991.88
2023-03-25T11:27:18.268Z,991.97
2023-03-25T11:28:18.267Z,991.90
2023-03-25T11:29:19.279Z,991.90
2023-03-25T11:30:18.227Z,992.00
2023-03-25T11:31:18.298Z,991.84
2023-03-25T11:32:18.167Z,991.95
2023-03-25T11:33:18.194Z,991.88
2023-03-25T11:34:18.235Z,991.92
2023-03-25T11:35:18.156Z,991.82
2023-03-25T11:36:18.118Z,991.83
2023-03-25T11:37:18.185Z,991.93
2023-03-25T11:38:18.093Z,991.98
2023-03-25T11:39:18.781Z,992.04
2023-03-25T11:40:18.163Z,991.98
2023-03-25T11:41:18.079Z,991.76
2023-03-25T11:42:18.105Z,991.78
2023-03-25T11:43:18.041Z,991.73
2023-03-25T11:44:18.242Z,991.83
2023-03-25T11:45:18.000Z,991.80
2023-03-25T11:46:18.065Z,991.69
2023-03-25T11:47:17.969Z,991.72
2023-03-25T11:48:17.951Z,991.73
2023-03-25T11:49:17.969Z,991.63
2023-03-25T11:50:17.977Z,991.72
2023-03-25T11:51:18.061Z,991.70
2023-03-25T11:52:17.961Z,991.78
2023-03-25T11:53:17.874Z,991.76
2023-03-25T11:54:17.901Z,991.67
2023-03-25T11:55:17.850Z,991.81
2023-03-25T11:56:17.896Z,991.77
2023-03-25T11:57:17.864Z,991.65
2023-03-25T11:58:17.845Z,991.80
2023-03-25T11:59:17.982Z,991.83
2023-03-25T12:00:17.939Z,991.79
2023-03-25T12:01:17.755Z,991.92
2023-03-25T12:02:17.779Z,991.96
2023-03-25T12:03:20.105Z,991.86
2023-03-25T12:04:17.844Z,991.86
2023-03-25T12:05:17.711Z,991.97
2023-03-25T12:06:17.712Z,992.09
2023-03-25T12:07:17.672Z,992.06
2023-03-25T12:08:17.674Z,992.20
2023-03-25T12:09:17.653Z,991.98
2023-03-25T12:10:17.639Z,991.90
2023-03-25T12:11:17.623Z,991.97
2023-03-25T12:12:17.619Z,991.83
2023-03-25T12:13:17.608Z,991.81
2023-03-25T12:14:17.646Z,991.79
2023-03-25T12:15:17.594Z,991.74
2023-03-25T12:16:17.626Z,991.76
2023-03-25T12:17:17.635Z,991.70
2023-03-25T12:18:17.535Z,991.72
2023-03-25T12:19:17.618Z,991.68
2023-03-25T12:20:17.519Z,991.80
2023-03-25T12:21:17.483Z,991.79
2023-03-25T12:22:17.491Z,991.84
2023-03-25T12:23:17.474Z,991.77
2023-03-25T12:24:17.471Z,991.73
2023-03-25T12:25:17.434Z,991.94
2023-03-25T12:26:17.458Z,991.82
2023-03-25T12:27:17.419Z,991.84
2023-03-25T12:28:17.406Z,991.76